Main page
METAR-TAF:

METAR-TAF

Airports :

Valencia Airport

Valencia, Spain

latitude: 39-30N, longitude: 000-28W, elevation: 69 m

Current weather observation

The report was made 25 minutes ago, at 23:00 UTC
Wind 4 kt from the West
Temperature 14°C
Humidity 82%
Pressure 1023 hPa
Visibility 10 km or more
no clouds below 1500 m and no cumulonimbus

METAR: LEVC 282300Z 28004KT CAVOK 14/11 Q1023 NOSIG

Time: 00:25 (23:25 UTC)

Forecast

The report was made 6 hours and 25 minutes ago, at 17:00 UTC
Forecast valid from 28 at 18 UTC to 29 at 18 UTC
Wind 5 kt from the East
Visibility 10 km or more
Few clouds at a height of 2500 ft
Becoming
from 28 at 18 UTC to 28 at 20 UTC
Wind 5 kt from the West
Becoming
from 29 at 11 UTC to 29 at 13 UTC
Wind 7 kt from the East/Southeast

TAF: LEVC 281700Z 2818/2918 08005KT 9999 FEW025 TX23/2913Z TN10/2906Z BECMG 2818/2820 27005KT BECMG 2911/2913 12007KT

Weather observations and forecasts of more than 4000 airports (METAR and TAF reports).

The available stations are represented by yellow and red dots on the map.

Hover mouse over dot to see the name of the station.

Then click to see weather observations and forecasts.

To change the map : click on the green buttons with a black cross to zoom in, on the green button with a dash to zoom out, or on the green arrows for adjacent maps.


METAR-TAF: